Time;durP1;ratioP1;P1;durP2;ratioP2;P2;SDS_P1;SDS_P2;PMS_P1;PMS_P2;Temp;Humidity;BMP_temperature;BMP_pressure;BME280_temperature;BME280_humidity;BME280_pressure;Samples;Min_cycle;Max_cycle;Signal;HPM_P1;HPM_P2
2021/03/19 00:00:54;;;;;;;43.97;28.58;;;77.00;2227.20;;;;;;4939264;29;20359;-71
2021/03/19 00:03:19;;;;;;;40.28;28.83;;;77.10;2227.20;;;;;;4935219;29;20092;-74
2021/03/19 00:05:46;;;;;;;42.55;29.15;;;77.10;2227.20;;;;;;4946121;29;20030;-71
2021/03/19 00:08:12;;;;;;;44.25;30.25;;;77.00;2227.20;;;;;;4935784;29;20050;-70
2021/03/19 00:10:38;;;;;;;44.05;29.77;;;77.10;2227.20;;;;;;4939498;29;20903;-71
2021/03/19 00:13:08;;;;;;;40.45;28.98;;;77.00;2227.20;;;;;;4934552;29;20031;-69
2021/03/19 00:15:33;;;;;;;48.55;30.85;;;77.00;2227.20;;;;;;4929418;29;20047;-70
2021/03/19 00:18:18;;;;;;;47.60;33.00;;;77.10;2227.20;;;;;;4940708;29;20032;-71
2021/03/19 00:20:51;;;;;;;56.50;36.42;;;77.10;2227.20;;;;;;4938039;29;20023;-71
2021/03/19 00:23:17;;;;;;;51.95;33.53;;;77.10;2227.20;;;;;;4936058;29;20075;-72
2021/03/19 00:25:44;;;;;;;49.38;31.73;;;77.30;2227.20;;;;;;4928484;29;20032;-71
2021/03/19 00:28:13;;;;;;;51.38;32.80;;;51.20;2227.20;;;;;;4937071;29;20047;-71
2021/03/19 00:30:41;;;;;;;49.47;34.25;;;77.10;2227.20;;;;;;4941888;29;20032;-71
2021/03/19 00:33:07;;;;;;;49.72;33.55;;;77.10;2227.20;;;;;;4930699;29;20036;-71
2021/03/19 00:35:33;;;;;;;50.20;32.08;;;77.10;2227.20;;;;;;4937058;29;20382;-71
2021/03/19 00:37:58;;;;;;;45.00;30.25;;;77.10;2227.20;;;;;;4937568;29;20031;-71
2021/03/19 00:40:28;;;;;;;53.70;33.67;;;77.20;2227.20;;;;;;4943921;29;20039;-72
2021/03/19 00:42:54;;;;;;;49.20;32.25;;;77.20;2227.20;;;;;;4938176;29;20035;-70
2021/03/19 00:45:20;;;;;;;50.72;33.33;;;77.20;2227.20;;;;;;4937108;29;20020;-72
2021/03/19 00:47:46;;;;;;;43.50;30.38;;;77.10;2227.20;;;;;;4935232;29;20023;-71
2021/03/19 00:50:16;;;;;;;41.88;29.05;;;77.00;2227.20;;;;;;4936316;29;20065;-71
2021/03/19 00:52:41;;;;;;;43.90;28.67;;;77.00;2227.20;;;;;;4935302;29;20298;-71
2021/03/19 00:55:10;;;;;;;44.22;29.10;;;76.90;2227.20;;;;;;4930563;29;20532;-71
2021/03/19 00:57:35;;;;;;;42.20;28.70;;;76.80;2227.20;;;;;;4936531;29;20039;-71
2021/03/19 01:00:05;;;;;;;41.78;28.58;;;76.80;2227.20;;;;;;4938973;29;20035;-71
2021/03/19 01:02:30;;;;;;;39.47;26.92;;;52.00;2227.20;;;;;;4911626;29;20119;-71
2021/03/19 01:04:56;;;;;;;39.38;25.83;;;52.00;2227.20;;;;;;4930072;29;20586;-71
2021/03/19 01:07:23;;;;;;;41.88;26.60;;;52.00;2227.20;;;;;;4933407;29;20047;-71
2021/03/19 01:09:48;;;;;;;35.53;24.40;;;52.00;2227.20;;;;;;4935864;29;20031;-71
2021/03/19 01:12:14;;;;;;;34.88;22.95;;;51.90;2227.20;;;;;;4941307;29;20030;-71
2021/03/19 01:14:40;;;;;;;35.28;24.20;;;51.90;2227.20;;;;;;4936245;29;20026;-72
2021/03/19 01:17:15;;;;;;;37.30;25.00;;;51.90;2227.20;;;;;;4947597;29;20020;-71
2021/03/19 01:19:42;;;;;;;40.15;26.35;;;51.90;2227.20;;;;;;4880759;29;20517;-71
2021/03/19 01:22:08;;;;;;;37.22;25.75;;;51.90;2227.20;;;;;;4877257;29;20037;-71
2021/03/19 01:24:34;;;;;;;34.22;22.40;;;52.00;2227.20;;;;;;4877427;29;20044;-71
2021/03/19 01:27:00;;;;;;;36.35;23.83;;;52.00;2227.20;;;;;;4876463;29;20119;-71
2021/03/19 01:29:25;;;;;;;35.45;23.80;;;52.00;2227.20;;;;;;4877304;29;20051;-71
2021/03/19 01:31:51;;;;;;;38.22;25.98;;;52.00;2227.20;;;;;;4890348;29;20970;-71
2021/03/19 01:34:17;;;;;;;39.10;26.05;;;52.00;2227.20;;;;;;4876525;29;20041;-71
2021/03/19 01:36:42;;;;;;;42.10;27.75;;;52.00;2227.20;;;;;;4876125;29;20158;-70
2021/03/19 01:39:08;;;;;;;41.42;28.10;;;52.10;2227.20;;;;;;4880710;29;20045;-73
2021/03/19 01:41:35;;;;;;;40.33;27.50;;;77.20;2227.20;;;;;;4877672;29;20037;-71
2021/03/19 01:44:21;;;;;;;39.90;27.42;;;52.10;2227.20;;;;;;4862018;29;20126;-71
2021/03/19 01:47:25;;;;;;;39.85;27.27;;;52.10;2227.20;;;;;;4877133;29;20092;-71
2021/03/19 01:50:30;;;;;;;36.53;24.58;;;52.10;2227.20;;;;;;4877926;29;20499;-72
2021/03/19 01:53:33;;;;;;;37.83;24.40;;;52.10;2227.20;;;;;;4875807;29;20025;-71
2021/03/19 01:56:36;;;;;;;35.55;24.35;;;77.00;2227.20;;;;;;4876371;29;20436;-71
2021/03/19 01:59:38;;;;;;;37.08;24.70;;;52.10;2227.20;;;;;;4876424;29;20037;-71
2021/03/19 02:02:41;;;;;;;36.05;23.65;;;52.10;2227.20;;;;;;4876270;29;20056;-71
2021/03/19 02:05:44;;;;;;;33.97;22.83;;;76.80;2227.20;;;;;;4876717;29;20044;-71
2021/03/19 02:08:47;;;;;;;34.00;22.65;;;76.80;2227.20;;;;;;4866106;29;20045;-71
2021/03/19 02:11:50;;;;;;;34.25;22.25;;;76.80;2227.20;;;;;;4886278;29;20606;-69
2021/03/19 02:14:53;;;;;;;36.63;23.98;;;76.80;2227.20;;;;;;4876117;29;20048;-70
2021/03/19 02:17:55;;;;;;;32.65;23.45;;;76.80;2227.20;;;;;;4894273;29;20037;-72
2021/03/19 02:20:58;;;;;;;33.65;22.85;;;52.10;2227.20;;;;;;4871370;29;20037;-72
2021/03/19 02:24:06;;;;;;;34.40;22.42;;;76.80;2227.20;;;;;;4910919;29;20034;-71
2021/03/19 02:27:09;;;;;;;32.10;22.42;;;76.80;2227.20;;;;;;4857745;29;20056;-71
2021/03/19 02:30:14;;;;;;;34.78;23.13;;;76.80;2227.20;;;;;;4858005;29;20079;-71
2021/03/19 02:32:56;;;;;;;31.98;23.17;;;76.80;2227.20;;;;;;4859758;29;20025;-72
2021/03/19 02:35:29;;;;;;;37.28;23.20;;;76.80;2227.20;;;;;;4872297;29;20037;-72
2021/03/19 02:37:57;;;;;;;35.28;22.70;;;76.80;2227.20;;;;;;4845084;29;20045;-71
2021/03/19 02:40:24;;;;;;;35.20;23.63;;;76.80;2227.20;;;;;;4858079;29;20038;-71
2021/03/19 02:42:50;;;;;;;36.42;24.85;;;76.80;2227.20;;;;;;4858918;29;20447;-71
2021/03/19 02:45:22;;;;;;;38.03;24.42;;;76.80;2227.20;;;;;;4841667;29;20030;-71
2021/03/19 02:47:49;;;;;;;36.45;24.30;;;76.80;2227.20;;;;;;4865401;29;20056;-71
2021/03/19 02:50:15;;;;;;;36.33;23.80;;;52.10;2227.20;;;;;;4857783;29;20045;-71
2021/03/19 02:52:43;;;;;;;37.00;23.77;;;76.80;2227.20;;;;;;4858672;29;20162;-72
2021/03/19 02:55:12;;;;;;;32.13;22.80;;;76.90;2227.20;;;;;;4854251;29;20097;-71
2021/03/19 02:57:38;;;;;;;35.28;24.17;;;76.90;2227.20;;;;;;4859815;29;20395;-71
2021/03/19 03:00:07;;;;;;;35.88;23.95;;;76.90;2227.20;;;;;;4856767;29;20045;-70
2021/03/19 03:02:33;;;;;;;36.13;23.20;;;76.90;2227.20;;;;;;4872089;29;20386;-71
2021/03/19 03:04:59;;;;;;;35.00;22.23;;;76.90;2227.20;;;;;;4932789;29;20122;-71
2021/03/19 03:07:27;;;;;;;35.92;23.85;;;76.90;2227.20;;;;;;4934111;29;20080;-70
2021/03/19 03:09:53;;;;;;;31.10;22.25;;;76.80;2227.20;;;;;;4934404;29;20032;-70
2021/03/19 03:12:20;;;;;;;32.42;22.90;;;76.80;2227.20;;;;;;4948308;29;20042;-71
2021/03/19 03:14:46;;;;;;;31.42;22.77;;;76.80;2227.20;;;;;;4931309;29;20027;-71
2021/03/19 03:17:13;;;;;;;28.95;21.50;;;76.80;2227.20;;;;;;4934268;29;20119;-71
2021/03/19 03:19:38;;;;;;;32.67;22.92;;;52.10;2227.20;;;;;;4934320;29;20024;-71
2021/03/19 03:22:05;;;;;;;30.67;21.58;;;52.10;2227.20;;;;;;4933315;29;20039;-71
2021/03/19 03:24:31;;;;;;;31.80;23.17;;;76.80;2227.20;;;;;;4931837;29;20071;-73
2021/03/19 03:27:12;;;;;;;34.33;22.83;;;52.00;2227.20;;;;;;4931187;29;20051;-70
2021/03/19 03:29:47;;;;;;;31.88;21.83;;;52.10;2227.20;;;;;;4926509;29;20036;-71
2021/03/19 03:32:13;;;;;;;33.42;23.52;;;52.10;2227.20;;;;;;4928144;29;20096;-71
2021/03/19 03:34:38;;;;;;;34.53;24.05;;;52.10;2227.20;;;;;;4932837;29;20147;-71
2021/03/19 03:37:05;;;;;;;32.92;23.13;;;52.10;2227.20;;;;;;4925841;29;20040;-70
2021/03/19 03:39:32;;;;;;;32.20;23.23;;;52.10;2227.20;;;;;;5040077;23;20063;-71
2021/03/19 03:42:02;;;;;;;33.35;23.35;;;52.10;2227.20;;;;;;4951890;28;20023;-71
2021/03/19 03:44:28;;;;;;;33.08;23.35;;;52.10;2227.20;;;;;;4935896;29;20039;-71
2021/03/19 03:46:55;;;;;;;37.50;23.58;;;52.10;2227.20;;;;;;4957272;28;20070;-71
2021/03/19 03:49:22;;;;;;;34.25;24.08;;;52.10;2227.20;;;;;;4956880;28;20042;-72
2021/03/19 03:51:48;;;;;;;33.97;24.08;;;76.80;2227.20;;;;;;4956962;28;20019;-72
2021/03/19 03:54:14;;;;;;;36.80;24.70;;;76.80;2227.20;;;;;;4956944;28;20031;-72
2021/03/19 03:56:41;;;;;;;36.15;24.25;;;76.80;2227.20;;;;;;4946981;28;20031;-71
2021/03/19 03:59:07;;;;;;;37.25;24.60;;;76.80;2227.20;;;;;;4957058;28;20493;-71
2021/03/19 04:01:35;;;;;;;35.25;25.10;;;52.10;2227.20;;;;;;4953149;28;20036;-71
2021/03/19 04:04:01;;;;;;;34.92;25.02;;;52.10;2227.20;;;;;;4951555;28;20028;-71
2021/03/19 04:06:27;;;;;;;36.00;23.58;;;76.80;2227.20;;;;;;4952992;28;20104;-71
2021/03/19 04:08:52;;;;;;;34.97;24.35;;;76.80;2227.20;;;;;;4939439;28;20059;-74
2021/03/19 04:11:20;;;;;;;34.83;25.38;;;76.80;2227.20;;;;;;4936412;29;20024;-71
2021/03/19 04:13:47;;;;;;;38.70;25.88;;;52.10;2227.20;;;;;;4949191;28;20031;-72
2021/03/19 04:16:13;;;;;;;34.03;24.88;;;52.10;2227.20;;;;;;4956646;28;20098;-71
2021/03/19 04:18:39;;;;;;;35.42;24.80;;;51.90;2227.20;;;;;;4956319;28;20413;-71
2021/03/19 04:21:08;;;;;;;37.53;25.20;;;51.90;2227.20;;;;;;4956476;28;20030;-71
2021/03/19 04:23:42;;;;;;;34.90;24.92;;;51.80;2227.20;;;;;;4956579;28;20031;-71
2021/03/19 04:26:28;;;;;;;41.13;25.98;;;51.70;2227.20;;;;;;4955741;28;20024;-71
2021/03/19 04:28:54;;;;;;;43.15;26.35;;;51.70;2227.20;;;;;;4945587;28;20108;-70
2021/03/19 04:31:20;;;;;;;40.00;27.30;;;51.60;2227.20;;;;;;4936182;29;20031;-71
2021/03/19 04:33:46;;;;;;;42.65;28.02;;;51.60;2227.20;;;;;;4955998;28;20121;-71
2021/03/19 04:36:27;;;;;;;40.15;27.92;;;51.60;2227.20;;;;;;4955229;28;20508;-71
2021/03/19 04:38:57;;;;;;;41.40;28.05;;;51.70;2227.20;;;;;;4946827;28;20403;-71
2021/03/19 04:41:22;;;;;;;38.80;26.75;;;51.70;2227.20;;;;;;4935320;29;20024;-71
2021/03/19 04:43:48;;;;;;;43.47;28.80;;;51.70;2227.20;;;;;;4936602;29;20039;-71
2021/03/19 04:46:15;;;;;;;41.83;28.67;;;51.70;2227.20;;;;;;4936808;29;20035;-71
2021/03/19 04:48:40;;;;;;;41.58;28.33;;;51.80;2227.20;;;;;;4936497;29;20074;-71
2021/03/19 04:51:06;;;;;;;41.80;29.30;;;51.70;2227.20;;;;;;4936473;29;20059;-71
2021/03/19 04:53:32;;;;;;;42.92;29.08;;;51.80;2227.20;;;;;;4936446;29;20035;-71
2021/03/19 04:55:58;;;;;;;40.72;28.20;;;51.80;2227.20;;;;;;4935501;29;20027;-72
2021/03/19 04:58:23;;;;;;;43.50;29.65;;;51.90;2227.20;;;;;;4934400;29;20066;-70
2021/03/19 05:00:49;;;;;;;44.40;29.00;;;51.90;2227.20;;;;;;4935842;29;20067;-73
2021/03/19 05:03:15;;;;;;;41.88;29.10;;;52.00;2227.20;;;;;;4937038;29;20513;-70
2021/03/19 05:05:41;;;;;;;42.35;29.20;;;51.90;2227.20;;;;;;4936999;29;20024;-71
2021/03/19 05:08:06;;;;;;;39.53;27.90;;;52.00;2227.20;;;;;;4936037;29;20430;-71
2021/03/19 05:10:35;;;;;;;39.00;28.40;;;52.00;2227.20;;;;;;4936524;29;20466;-69
2021/03/19 05:13:02;;;;;;;42.70;27.98;;;52.10;2227.20;;;;;;4936470;29;20027;-70
2021/03/19 05:15:30;;;;;;;39.25;27.23;;;52.10;2227.20;;;;;;4935950;29;20429;-69
2021/03/19 05:17:56;;;;;;;38.53;27.27;;;52.10;2227.20;;;;;;4934846;29;20482;-70
2021/03/19 05:20:23;;;;;;;39.15;27.05;;;76.80;2227.20;;;;;;4935952;29;20023;-72
2021/03/19 05:22:49;;;;;;;39.10;27.48;;;76.80;2227.20;;;;;;4936593;29;20028;-70
2021/03/19 05:25:21;;;;;;;41.22;29.77;;;77.20;2227.20;;;;;;4935477;29;20031;-71
2021/03/19 05:27:47;;;;;;;50.17;32.03;;;77.00;2227.20;;;;;;4941196;29;20042;-69
2021/03/19 05:30:15;;;;;;;39.50;27.75;;;77.10;2227.20;;;;;;4935511;29;20058;-75
2021/03/19 05:32:42;;;;;;;45.00;29.35;;;77.20;2227.20;;;;;;4936199;29;20026;-70
2021/03/19 05:35:11;;;;;;;42.40;29.70;;;77.20;2227.20;;;;;;4935688;29;20031;-69
2021/03/19 05:37:37;;;;;;;43.17;28.65;;;77.20;2227.20;;;;;;4929205;29;20119;-69
2021/03/19 05:40:06;;;;;;;44.28;30.48;;;77.30;2227.20;;;;;;4930535;29;20485;-75
2021/03/19 05:42:35;;;;;;;42.00;28.50;;;77.40;2227.20;;;;;;4936085;29;20038;-73
2021/03/19 05:45:04;;;;;;;44.58;29.42;;;77.40;2227.20;;;;;;4915767;29;20062;-73
2021/03/19 05:47:30;;;;;;;45.53;30.77;;;77.40;2227.20;;;;;;4935268;29;20042;-73
2021/03/19 05:49:59;;;;;;;54.08;33.38;;;77.50;2227.20;;;;;;4934371;29;20114;-74
2021/03/19 05:52:34;;;;;;;44.10;30.58;;;77.50;2227.20;;;;;;4935741;29;20024;-74
2021/03/19 05:55:14;;;;;;;40.92;27.98;;;77.70;2227.20;;;;;;4934806;29;20090;-72
2021/03/19 05:57:39;;;;;;;52.67;31.50;;;102.40;2227.20;;;;;;4934851;29;20024;-74
2021/03/19 06:00:20;;;;;;;44.38;28.10;;;102.40;2227.20;;;;;;4934874;29;20035;-73
2021/03/19 06:02:46;;;;;;;37.88;26.00;;;102.40;2227.20;;;;;;4925307;29;20051;-73
2021/03/19 06:05:17;;;;;;;43.83;28.45;;;102.40;2227.20;;;;;;4934499;29;20062;-73
2021/03/19 06:07:43;;;;;;;38.00;27.20;;;77.70;2227.20;;;;;;4934977;29;20028;-69
2021/03/19 06:10:23;;;;;;;39.97;27.77;;;102.40;2227.20;;;;;;4935435;29;20039;-69
2021/03/19 06:12:52;;;;;;;34.90;26.90;;;102.50;2227.20;;;;;;4936845;29;20023;-69
2021/03/19 06:15:32;;;;;;;39.63;27.70;;;102.50;2227.20;;;;;;4934887;29;20529;-69
2021/03/19 06:18:01;;;;;;;39.95;27.95;;;102.60;2227.20;;;;;;4935098;29;20528;-70
2021/03/19 06:20:28;;;;;;;39.28;27.13;;;102.60;2227.20;;;;;;4935153;29;20031;-69
2021/03/19 06:22:54;;;;;;;38.42;27.77;;;102.50;2227.20;;;;;;4915374;29;20024;-69
2021/03/19 06:25:19;;;;;;;38.60;27.67;;;102.50;2227.20;;;;;;4930658;29;20038;-72
2021/03/19 06:28:00;;;;;;;38.53;27.95;;;102.50;2227.20;;;;;;4934980;29;20114;-69
2021/03/19 06:30:40;;;;;;;44.17;31.27;;;102.50;2227.20;;;;;;4934693;29;20025;-70
2021/03/19 06:33:25;;;;;;;44.28;32.03;;;102.40;2227.20;;;;;;4934343;29;20116;-70
2021/03/19 06:36:30;;;;;;;43.92;32.00;;;102.40;2227.20;;;;;;4934766;29;20038;-70
2021/03/19 06:39:21;;;;;;;54.90;34.47;;;77.70;2227.20;;;;;;4887351;29;20049;-70
2021/03/19 06:42:05;;;;;;;50.30;33.72;;;77.60;2227.20;;;;;;4880173;29;20030;-69
2021/03/19 06:44:31;;;;;;;50.22;34.42;;;77.60;2227.20;;;;;;4875297;29;20044;-71
2021/03/19 06:46:59;;;;;;;49.05;33.00;;;77.60;2227.20;;;;;;4874797;29;20037;-69
2021/03/19 06:49:27;;;;;;;48.67;33.55;;;77.40;2227.20;;;;;;4886411;29;20042;-70
2021/03/19 06:52:14;;;;;;;58.17;38.85;;;77.40;2227.20;;;;;;4879192;29;20033;-71
2021/03/19 06:54:50;;;;;;;50.05;32.92;;;77.40;2227.20;;;;;;4876583;29;20076;-70
2021/03/19 06:57:19;;;;;;;45.60;31.77;;;77.40;2227.20;;;;;;4878226;29;20078;-69
2021/03/19 06:59:53;;;;;;;53.22;35.50;;;77.40;2227.20;;;;;;4877393;29;20456;-68
2021/03/19 07:02:48;;;;;;;49.42;32.47;;;77.40;2227.20;;;;;;4875734;29;20048;-70
2021/03/19 07:05:35;;;;;;;46.17;31.55;;;77.50;2227.20;;;;;;4878910;29;20515;-70
2021/03/19 07:08:25;;;;;;;45.17;31.75;;;77.50;2227.20;;;;;;4883215;29;20084;-70
2021/03/19 07:11:27;;;;;;;46.28;30.75;;;77.50;2227.20;;;;;;4933166;29;20054;-70
2021/03/19 07:13:59;;;;;;;53.95;31.70;;;77.50;2227.20;;;;;;4932805;29;20035;-69
2021/03/19 07:16:52;;;;;;;47.17;33.33;;;77.60;2227.20;;;;;;4933323;29;20378;-68
2021/03/19 07:19:30;;;;;;;53.20;34.28;;;77.40;2227.20;;;;;;4934168;29;20067;-71
2021/03/19 07:22:09;;;;;;;47.60;33.55;;;77.00;2227.20;;;;;;4928625;29;20144;-70
2021/03/19 07:24:51;;;;;;;53.55;34.40;;;77.00;2227.20;;;;;;4936795;29;20093;-70
2021/03/19 07:27:34;;;;;;;52.65;33.40;;;76.90;2227.20;;;;;;4932340;29;20035;-70
2021/03/19 07:30:15;;;;;;;45.95;30.88;;;77.00;2227.20;;;;;;4937162;29;20031;-70
2021/03/19 07:32:59;;;;;;;42.22;28.67;;;77.00;2227.20;;;;;;4934426;29;20028;-73
2021/03/19 07:35:36;;;;;;;40.05;27.65;;;76.80;2227.20;;;;;;4937154;29;20036;-74
2021/03/19 07:38:59;;;;;;;45.05;29.50;;;76.90;2227.20;;;;;;4935548;29;20024;-70
2021/03/19 07:41:43;;;;;;;37.95;26.77;;;76.80;2227.20;;;;;;4896462;29;20116;-71
2021/03/19 07:44:35;;;;;;;39.72;27.52;;;77.00;2227.20;;;;;;4896439;29;20037;-72
2021/03/19 07:47:12;;;;;;;38.17;26.90;;;77.10;2227.20;;;;;;4892864;29;20507;-72
2021/03/19 07:50:11;;;;;;;36.90;25.52;;;77.10;2227.20;;;;;;4896099;29;20549;-72
2021/03/19 07:53:02;;;;;;;34.38;24.63;;;77.20;2227.20;;;;;;4892810;29;20048;-72
2021/03/19 07:55:55;;;;;;;33.40;23.27;;;77.30;2227.20;;;;;;4896514;29;20497;-73
2021/03/19 07:59:04;;;;;;;32.08;23.38;;;77.40;2227.20;;;;;;4892661;29;20068;-71
2021/03/19 08:02:00;;;;;;;29.45;22.23;;;77.70;2227.20;;;;;;4893759;29;20040;-70
2021/03/19 08:04:31;;;;;;;31.38;21.30;;;102.40;2227.20;;;;;;4858587;29;20045;-71
2021/03/19 08:07:12;;;;;;;30.42;22.05;;;102.50;2227.20;;;;;;4858029;29;20068;-70
2021/03/19 08:09:48;;;;;;;31.02;22.98;;;102.40;2227.20;;;;;;4856241;29;20057;-74
2021/03/19 08:12:34;;;;;;;33.97;24.30;;;102.40;2227.20;;;;;;4869668;29;20438;-71
2021/03/19 08:15:26;;;;;;;30.08;21.98;;;102.50;2227.20;;;;;;4877556;29;20056;-73
2021/03/19 08:17:54;;;;;;;29.98;22.65;;;102.60;2227.20;;;;;;4878117;29;20033;-70
2021/03/19 08:20:35;;;;;;;27.45;21.02;;;102.60;2227.20;;;;;;4877616;29;20041;-70
2021/03/19 08:23:23;;;;;;;25.92;19.95;;;77.70;2227.20;;;;;;4874885;29;20131;-70
2021/03/19 08:25:52;;;;;;;24.95;19.45;;;102.40;2227.20;;;;;;4877142;29;20423;-75
2021/03/19 08:28:42;;;;;;;27.05;19.83;;;102.50;2227.20;;;;;;4867245;29;20045;-68
2021/03/19 08:31:25;;;;;;;24.40;19.33;;;102.50;2227.20;;;;;;4873972;29;20069;-68
2021/03/19 08:34:11;;;;;;;24.27;19.37;;;102.80;2227.20;;;;;;4876431;29;20041;-71
2021/03/19 08:36:44;;;;;;;22.42;18.63;;;103.10;2227.20;;;;;;4876673;29;20180;-69
2021/03/19 08:39:38;;;;;;;30.85;20.67;;;103.10;2227.20;;;;;;4883518;29;20131;-70
2021/03/19 08:42:14;;;;;;;22.95;19.13;;;128.00;2252.80;;;;;;4925943;29;20034;-68
2021/03/19 08:44:40;;;;;;;23.90;20.05;;;128.30;2252.80;;;;;;4954889;29;20081;-74
2021/03/19 08:47:26;;;;;;;23.30;18.05;;;128.50;2252.80;;;;;;4953643;29;20016;-68
2021/03/19 08:49:57;;;;;;;22.42;17.02;;;153.60;2252.80;;;;;;4955010;29;20433;-66
2021/03/19 08:52:35;;;;;;;24.60;19.27;;;128.90;2252.80;;;;;;4954882;29;20492;-68
2021/03/19 08:55:13;;;;;;;26.00;19.73;;;128.70;2252.80;;;;;;4954939;29;20143;-66
2021/03/19 08:57:39;;;;;;;22.83;18.77;;;128.40;2252.80;;;;;;4958576;29;20111;-68
2021/03/19 09:00:34;;;;;;;22.27;18.48;;;128.40;2252.80;;;;;;4957329;29;20071;-72
2021/03/19 09:03:06;;;;;;;22.27;17.75;;;128.10;2252.80;;;;;;4935963;29;20179;-72
2021/03/19 09:06:03;;;;;;;23.58;18.60;;;128.30;2252.80;;;;;;4953670;29;20086;-69
2021/03/19 09:08:49;;;;;;;20.17;16.80;;;128.30;2252.80;;;;;;4935933;29;20066;-72
2021/03/19 09:11:38;;;;;;;23.50;17.95;;;128.20;2252.80;;;;;;4951018;29;20038;-74
2021/03/19 09:14:04;;;;;;;21.67;17.30;;;128.30;2252.80;;;;;;4946801;29;20035;-79
2021/03/19 09:16:55;;;;;;;21.60;17.02;;;128.20;2252.80;;;;;;4953747;29;20027;-71
2021/03/19 09:19:42;;;;;;;20.35;16.05;;;128.10;2252.80;;;;;;4953695;29;20063;-69
2021/03/19 09:22:24;;;;;;;19.38;15.18;;;128.10;2252.80;;;;;;4950413;29;20362;-72
2021/03/19 09:25:12;;;;;;;18.88;15.80;;;103.20;2227.20;;;;;;4955657;29;20029;-70
2021/03/19 09:27:44;;;;;;;21.63;17.02;;;103.10;2227.20;;;;;;4950228;29;20031;-76
2021/03/19 09:30:22;;;;;;;20.65;17.40;;;102.90;2227.20;;;;;;4951984;29;20023;-69
2021/03/19 09:32:50;;;;;;;20.73;16.40;;;102.90;2227.20;;;;;;4950844;29;20030;-67
2021/03/19 09:35:37;;;;;;;20.45;16.45;;;102.60;2227.20;;;;;;4955262;29;20104;-68
2021/03/19 09:38:29;;;;;;;18.83;15.50;;;102.40;2227.20;;;;;;4955217;29;20015;-69
2021/03/19 09:40:59;;;;;;;21.00;15.75;;;102.40;2227.20;;;;;;4954957;29;20043;-69
2021/03/19 09:43:46;;;;;;;19.30;14.70;;;102.60;2227.20;;;;;;4946849;28;20089;-70
2021/03/19 09:46:20;;;;;;;22.95;16.40;;;102.90;2227.20;;;;;;4954513;29;20037;-68
2021/03/19 09:49:00;;;;;;;20.58;16.35;;;103.20;2227.20;;;;;;4950400;29;20047;-69
2021/03/19 09:51:40;;;;;;;21.73;16.88;;;128.20;2252.80;;;;;;4952306;29;20038;-69
2021/03/19 09:54:39;;;;;;;21.17;16.90;;;128.10;2252.80;;;;;;4942497;29;20420;-69
2021/03/19 09:57:11;;;;;;;21.70;16.27;;;128.30;2252.80;;;;;;4886573;29;20037;-68
2021/03/19 09:59:40;;;;;;;21.52;16.30;;;128.40;2252.80;;;;;;4892343;29;20064;-68
2021/03/19 10:02:26;;;;;;;22.92;17.35;;;128.60;2252.80;;;;;;4895987;29;20044;-69
2021/03/19 10:04:53;;;;;;;18.67;14.85;;;128.80;2252.80;;;;;;4895196;29;20029;-67
2021/03/19 10:07:19;;;;;;;19.88;13.93;;;153.60;2252.80;;;;;;4895105;29;20045;-69
2021/03/19 10:09:49;;;;;;;18.23;14.75;;;128.90;2252.80;;;;;;4894516;29;20100;-69
2021/03/19 10:12:28;;;;;;;19.52;14.60;;;153.70;2252.80;;;;;;4895408;29;20079;-69
2021/03/19 10:14:57;;;;;;;18.30;14.13;;;153.90;2252.80;;;;;;4894333;29;20036;-70
2021/03/19 10:17:25;;;;;;;20.98;14.73;;;154.20;2252.80;;;;;;4895431;29;20032;-69
2021/03/19 10:19:59;;;;;;;16.95;13.63;;;154.40;2252.80;;;;;;4894181;29;20041;-69
2021/03/19 10:22:38;;;;;;;16.20;13.90;;;179.20;2252.80;;;;;;4879060;29;20032;-70
2021/03/19 10:25:26;;;;;;;16.63;12.52;;;179.50;2252.80;;;;;;4878584;29;20127;-70
2021/03/19 10:27:55;;;;;;;16.10;12.25;;;179.60;2252.80;;;;;;4887313;29;20028;-72
2021/03/19 10:30:28;;;;;;;21.60;13.48;;;179.30;2252.80;;;;;;4893770;29;20065;-71
2021/03/19 10:32:58;;;;;;;15.88;13.02;;;179.30;2252.80;;;;;;4930589;29;20118;-72
2021/03/19 10:35:33;;;;;;;17.90;12.80;;;179.30;2252.80;;;;;;4950162;29;20031;-71
2021/03/19 10:38:15;;;;;;;20.40;13.68;;;179.50;2227.20;;;;;;4945718;29;20381;-70
2021/03/19 10:40:46;;;;;;;15.27;11.38;;;179.20;2252.80;;;;;;4942663;29;20051;-74
2021/03/19 10:43:31;;;;;;;30.10;14.05;;;154.40;2201.60;;;;;;4934411;29;20031;-73
2021/03/19 10:46:19;;;;;;;16.55;12.50;;;153.90;2252.80;;;;;;4935345;29;20399;-70
2021/03/19 10:48:53;;;;;;;25.77;12.52;;;128.80;2252.80;;;;;;4932150;29;20036;-71
2021/03/19 10:51:43;;;;;;;19.70;12.85;;;128.20;2252.80;;;;;;4933783;29;20031;-73
2021/03/19 10:54:28;;;;;;;22.92;12.90;;;103.20;2227.20;;;;;;4933878;29;20077;-72
2021/03/19 10:56:57;;;;;;;31.85;18.33;;;103.20;2227.20;;;;;;4937168;29;20027;-70
2021/03/19 10:59:29;;;;;;;18.38;12.80;;;103.30;2227.20;;;;;;4934458;29;20389;-70
2021/03/19 11:02:07;;;;;;;24.60;13.10;;;128.00;2252.80;;;;;;4933142;29;20474;-70
2021/03/19 11:04:42;;;;;;;16.58;12.30;;;128.00;2252.80;;;;;;4930200;29;20031;-70
2021/03/19 11:07:18;;;;;;;17.42;12.27;;;128.40;2252.80;;;;;;4932492;29;20444;-70
2021/03/19 11:10:08;;;;;;;30.85;15.25;;;128.90;2252.80;;;;;;4924224;29;20553;-71
2021/03/19 11:13:18;;;;;;;20.35;12.38;;;154.30;2252.80;;;;;;4926813;29;20032;-81
2021/03/19 11:15:47;;;;;;;21.52;12.60;;;179.60;2201.60;;;;;;4872989;29;20081;-71
2021/03/19 11:18:33;;;;;;;18.30;13.00;;;204.90;2252.80;;;;;;4876500;29;20040;-72
2021/03/19 11:21:08;;;;;;;23.73;13.30;;;204.90;2022.40;;;;;;4873699;29;20067;-71
2021/03/19 11:23:36;;;;;;;22.17;14.10;;;205.00;2022.40;;;;;;4875225;29;20041;-76
2021/03/19 11:26:33;;;;;;;18.83;12.77;;;205.10;2073.60;;;;;;4875118;29;20072;-71
2021/03/19 11:29:17;;;;;;;21.40;13.10;;;205.00;1971.20;;;;;;4874409;29;20045;-71
2021/03/19 11:32:00;;;;;;;20.40;13.32;;;179.80;2022.40;;;;;;4870992;29;20033;-72
2021/03/19 11:34:39;;;;;;;17.08;13.32;;;179.50;2022.40;;;;;;4872562;29;20041;-71
2021/03/19 11:37:13;;;;;;;20.65;12.65;;;179.30;2099.20;;;;;;4874015;29;20040;-70
2021/03/19 11:39:41;;;;;;;;;;;179.20;2099.20;;;;;;4872638;29;20072;-73
2021/03/19 11:42:14;;;;;;;20.92;12.52;;;154.20;2099.20;;;;;;4873346;29;19956;-71
2021/03/19 11:44:41;;;;;;;20.33;13.70;;;154.00;2176.00;;;;;;4877008;29;20048;-73
2021/03/19 11:47:27;;;;;;;16.90;12.90;;;153.90;2227.20;;;;;;4873931;29;20049;-71
2021/03/19 11:50:09;;;;;;;25.77;13.43;;;128.90;2227.20;;;;;;4874664;29;20534;-73
2021/03/19 11:52:34;;;;;;;24.73;13.98;;;128.70;2252.80;;;;;;4909943;29;20043;-71
2021/03/19 11:55:02;;;;;;;19.48;14.10;;;128.70;2252.80;;;;;;4932725;29;20035;-70
2021/03/19 11:57:28;;;;;;;23.38;14.13;;;128.80;2252.80;;;;;;4933634;29;20063;-71
2021/03/19 11:59:54;;;;;;;19.67;14.02;;;128.80;2252.80;;;;;;4929661;29;20102;-71
2021/03/19 12:02:38;;;;;;;19.98;14.35;;;128.90;2252.80;;;;;;4932980;29;20470;-71
2021/03/19 12:05:05;;;;;;;34.15;14.63;;;153.70;2227.20;;;;;;4928418;29;20042;-69
2021/03/19 12:07:31;;;;;;;20.77;13.75;;;153.80;2201.60;;;;;;4927015;29;20381;-69
2021/03/19 12:09:57;;;;;;;20.10;13.82;;;154.10;2099.20;;;;;;4937065;29;20118;-69
2021/03/19 12:12:25;;;;;;;23.67;14.75;;;154.20;2099.20;;;;;;4937024;29;20111;-69
2021/03/19 12:14:51;;;;;;;22.15;15.70;;;179.20;2201.60;;;;;;4935284;29;20133;-69
2021/03/19 12:17:18;;;;;;;24.67;13.90;;;179.60;2176.00;;;;;;4936569;29;20024;-69
2021/03/19 12:19:44;;;;;;;19.70;14.18;;;180.00;1996.80;;;;;;4936643;29;20035;-69
2021/03/19 12:22:09;;;;;;;17.77;13.27;;;204.80;1996.80;;;;;;4933752;29;20039;-72
2021/03/19 12:24:36;;;;;;;29.67;14.98;;;180.10;1945.60;;;;;;4929965;29;20443;-70
2021/03/19 12:27:03;;;;;;;20.45;14.15;;;205.00;1996.80;;;;;;4934690;29;20028;-72
2021/03/19 12:29:29;;;;;;;21.38;14.27;;;205.10;1843.20;;;;;;4936315;29;20516;-72
2021/03/19 12:31:55;;;;;;;21.40;14.63;;;205.30;1868.80;;;;;;4937106;29;20473;-71
2021/03/19 12:34:22;;;;;;;16.80;13.15;;;205.40;1920.00;;;;;;4936677;29;20473;-72
2021/03/19 12:36:49;;;;;;;16.35;13.35;;;180.00;1792.00;;;;;;4936721;29;20055;-72
2021/03/19 12:39:17;;;;;;;18.67;13.95;;;179.90;1868.80;;;;;;4943457;28;20496;-72
2021/03/19 12:41:43;;;;;;;17.25;12.65;;;204.90;1894.40;;;;;;4950786;28;20028;-69